Decoded Metar for UMOO (MOGILEV in BELARUS) (IATA:N/A) | Meteo·Mobile Aviation Weather
aviador You're here:

UMOO Decoded Metar

MOGILEV in BELARUS
Report Time2019-02-17 05:00:00
UTC Time2019-02-17 05:18:36
Flight Rules vfr VFR
Wind260° at 10 Gusting to 16 kt
W.Decomp.*RWY 31: 5.3 kt HW 8.5 kt LCW
W.Rank260° ranks 4
Current wind is above 260° avg. (9.0)
Visibility9999 m
Phenomena:N/A
Clouds:N/A
Expected CloudBase > 800 ft AGL from Temp-Dew spread
CeilingNone
Temp00°C (ISA -14)
Dew Point-2°C (87% RH)
AAT-5.8°C
QNH1011 hPa
Density Alt-896 ft
Elevation636 ft
Report Wrong Elevation
Raw Report
UMOO 170500Z 26005G08MPS CAVOK M00/M02 Q1011 NOSIG=

Extra information for UMOO:More info

Metar Taf Metar & Taf Last 4 Metars F.Rules Stats Wind Profile Meteogram Temp Stats Airport Information Weather charts Add Link Nearby VenuesMetar ALERT Operation Metar Decoded Social comments